Latest Weather Observations for Coldstream

IDV60801

Issued at 9:02 pm EDT Sunday 4 December 2016 (issued every 30 minutes, with the page automatically refreshed every 10 minutes)

About weather observations | Map of weather stations | Latest weather observations for VIC | Other Formats
Station Details ID: 086383 Name: COLDSTREAM Lat: -37.72 Lon: 145.41 Height: 83.0 m
Data from the previous 72 hours. | See also: Recent months at Coldstream
Date/Time
EDT
Temp
°C
App
Temp
°C
Dew
Point
°C
Rel
Hum
%
Delta-T
°C
Wind Press
QNH
hPa
Press
MSL
hPa
Rain since
9am
mm
Dir  Spd
km/h
Gust
km/h
Spd
kts
Gust
kts
04/09:00pm 19.4 21.2 18.4 94 0.6 N 6 7 3 4 1007.8 1007.6 2.2
04/08:30pm 19.6 20.7 18.1 91 0.9 ENE 9 15 5 8 1007.9 1007.7 1.8
04/08:00pm 20.3 21.7 17.9 86 1.5 ENE 7 13 4 7 1008.5 1008.3 0.8
04/07:30pm 21.0 22.3 17.0 78 2.4 N 6 9 3 5 1008.4 1008.2 0.4
04/07:00pm 22.3 22.2 16.1 68 3.8 NNW 11 19 6 10 1008.6 1008.4 0.2
04/06:30pm 22.5 22.0 17.0 71 3.4 N 15 24 8 13 1008.2 1008.0 0.0
04/06:00pm 24.3 21.7 15.8 59 5.2 NNW 24 39 13 21 1007.3 1007.1 0.0
04/05:30pm 27.8 23.9 13.3 40 8.6 NNW 26 43 14 23 1006.4 1006.2 0.0
04/05:00pm 27.6 29.2 18.3 57 6.0 ESE 7 9 4 5 1005.1 1004.9 0.0
04/04:30pm 29.4 31.1 17.2 47 7.7 NE 4 7 2 4 1005.6 1005.4 0.0
04/04:00pm 29.9 32.3 17.0 45 8.2 CALM 0 6 0 3 1005.9 1005.7 0.0
04/03:30pm 30.3 30.5 13.1 34 10.3 NW 4 6 2 3 1006.5 1006.3 0.0
04/03:00pm 30.1 29.1 13.4 36 10.0 NNW 11 20 6 11 1006.9 1006.7 0.0
04/02:30pm 30.8 28.6 12.2 32 11.0 N 15 28 8 15 1007.5 1007.3 0.0
04/02:00pm 30.4 28.0 12.8 34 10.5 N 17 28 9 15 1007.8 1007.6 0.0
04/01:30pm 29.7 26.4 11.7 33 10.5 N 20 32 11 17 1008.1 1007.9 0.0
04/01:00pm 29.2 26.1 11.7 34 10.2 N 19 32 10 17 1008.5 1008.3 0.0
04/12:30pm 28.9 26.4 11.0 33 10.3 N 15 24 8 13 1008.9 1008.7 0.0
04/12:00pm 28.3 25.0 9.6 31 10.5 N 17 28 9 15 1009.0 1008.8 0.0
04/11:30am 28.2 25.8 11.3 35 9.7 NNW 15 24 8 13 1009.2 1009.0 0.0
04/11:00am 27.6 26.3 12.4 39 8.9 N 11 15 6 8 1009.4 1009.2 0.0
04/10:30am 25.0 25.8 12.6 46 7.2 CALM 0 0 0 0 1009.9 1009.7 0.0
04/10:00am 22.8 23.1 10.9 47 6.6 CALM 0 0 0 0 1010.0 1009.8 0.0
04/09:30am 20.8 21.0 11.7 56 5.1 SE 2 7 1 4 1010.5 1010.4 0.0
04/09:00am 16.9 17.9 14.4 85 1.4 N 2 6 1 3 1010.8 1010.7 0.0
04/08:30am 14.1 13.8 12.7 91 0.8 NNW 6 7 3 4 1011.0 1010.9 0.0
04/08:00am 13.0 13.9 12.8 99 0.1 CALM 0 4 0 2 1010.9 1010.8 0.0
04/07:30am 10.4 9.7 10.2 99 0.1 N 4 9 2 5 1010.9 1010.8 0.0
04/07:00am 9.3 9.1 9.2 99 0.0 CALM 0 0 0 0 1011.2 1011.1 0.0
04/06:30am 7.7 7.1 7.6 99 0.0 CALM 0 0 0 0 1011.3 1011.2 0.0
04/06:00am 6.7 5.9 6.6 99 0.0 CALM 0 0 0 0 1011.6 1011.5 0.0
04/05:30am 6.7 5.9 6.6 99 0.0 CALM 0 0 0 0 1011.5 1011.4 0.0
04/05:00am 6.5 5.6 6.2 98 0.1 CALM 0 0 0 0 1011.5 1011.4 0.0
04/04:30am 7.0 6.2 6.7 98 0.1 CALM 0 0 0 0 1011.7 1011.6 0.0
04/04:00am 6.9 6.1 6.6 98 0.1 CALM 0 0 0 0 1011.6 1011.5 0.0
04/03:30am 7.5 6.9 7.2 98 0.1 CALM 0 0 0 0 1011.7 1011.6 0.0
04/03:00am 7.3 6.6 6.9 97 0.2 CALM 0 0 0 0 1011.7 1011.6 0.0
04/02:30am 7.6 6.9 7.0 96 0.3 CALM 0 0 0 0 1012.0 1011.9 0.0
04/02:00am 8.3 7.8 7.7 96 0.3 CALM 0 0 0 0 1012.3 1012.2 0.0
04/01:30am 8.7 8.2 7.9 95 0.4 CALM 0 0 0 0 1012.5 1012.4 0.0
04/01:00am 9.3 9.0 8.5 95 0.4 CALM 0 0 0 0 1012.9 1012.8 0.0
04/12:30am 9.8 9.6 8.9 94 0.4 CALM 0 0 0 0 1013.1 1013.0 0.0
04/12:00am 10.5 10.4 9.3 92 0.6 CALM 0 0 0 0 1013.4 1013.3 0.0
 
Date/Time
EDT
Temp
°C
App
Temp
°C
Dew
Point
°C
Rel
Hum
%
Delta-T
°C
Wind Press
QNH
hPa
Press
MSL
hPa
Rain since
9am
mm
Dir  Spd
km/h
Gust
km/h
Spd
kts
Gust
kts
03/11:30pm 11.3 11.2 9.6 89 0.9 CALM 0 0 0 0 1013.6 1013.5 0.0
03/11:00pm 12.5 12.5 9.9 84 1.3 CALM 0 0 0 0 1013.6 1013.5 0.0
03/10:30pm 14.6 15.0 11.2 80 1.8 CALM 0 0 0 0 1013.6 1013.5 0.0
03/10:00pm 16.0 15.7 11.6 75 2.4 E 4 9 2 5 1013.6 1013.5 0.0
03/09:30pm 17.8 16.0 12.0 69 3.2 SSE 13 22 7 12 1013.3 1013.2 0.0
03/09:00pm 18.2 16.4 12.0 67 3.4 SSE 13 24 7 13 1013.3 1013.2 0.0
03/08:30pm 18.9 17.0 11.7 63 4.0 SSE 13 20 7 11 1013.3 1013.2 0.0
03/08:00pm 20.1 17.4 11.6 58 4.7 SSE 17 26 9 14 1013.3 1013.2 0.0
03/07:30pm 21.2 17.8 11.2 53 5.5 SE 20 28 11 15 1013.2 1013.1 0.0
03/07:00pm 23.2 20.6 10.6 45 7.0 SE 15 20 8 11 1013.1 1013.0 0.0
03/06:30pm 23.9 21.5 9.9 41 7.7 ESE 13 22 7 12 1012.9 1012.8 0.0
03/06:00pm 24.4 21.7 5.7 30 9.6 ESE 9 15 5 8 1012.8 1012.7 0.0
03/05:30pm 24.7 22.7 6.9 32 9.3 E 7 11 4 6 1012.8 1012.7 0.0
03/05:00pm 25.2 23.5 5.9 29 9.9 WNW 4 13 2 7 1013.3 1013.2 0.0
03/04:30pm 24.4 21.5 6.6 32 9.2 ENE 11 17 6 9 1013.7 1013.6 0.0
03/04:00pm 23.7 21.1 6.0 32 9.0 ENE 9 15 5 8 1013.9 1013.8 0.0
03/03:30pm 23.3 21.3 6.1 33 8.8 N 6 15 3 8 1014.1 1013.9 0.0
03/03:00pm 23.8 21.8 6.1 32 9.1 W 6 13 3 7 1014.2 1014.0 0.0
03/02:30pm 23.6 21.6 6.4 33 8.9 SSW 6 9 3 5 1014.5 1014.3 0.0
03/02:00pm 22.8 20.9 6.6 35 8.3 SE 6 9 3 5 1014.7 1014.5 0.0
03/01:30pm 21.7 19.8 7.5 40 7.4 W 7 9 4 5 1015.0 1014.8 0.0
03/01:00pm 20.4 18.9 9.0 48 6.0 N 7 11 4 6 1015.2 1015.0 0.0
03/12:30pm 20.1 19.1 11.1 56 4.9 NE 7 11 4 6 1015.6 1015.4 0.0
03/12:00pm 19.3 18.8 10.8 58 4.6 SW 4 11 2 6 1016.0 1015.8 0.0
03/11:30am 18.4 17.3 10.5 60 4.3 NW 7 11 4 6 1016.1 1015.9 0.0
03/11:00am 17.8 17.2 10.4 62 4.0 NW 4 9 2 5 1016.1 1015.9 0.0
03/10:30am 16.9 16.0 10.7 67 3.3 W 6 11 3 6 1016.0 1015.8 0.0
03/10:00am 15.7 14.7 10.2 70 2.9 NNW 6 11 3 6 1016.2 1016.0 0.0
03/09:30am 14.1 12.8 9.1 72 2.6 NNW 6 9 3 5 1016.3 1016.1 0.0
03/09:00am 12.9 12.2 8.4 74 2.2 WNW 2 9 1 5 1016.4 1016.2 0.0
03/08:30am 12.2 11.5 8.7 79 1.7 NW 2 6 1 3 1016.4 1016.2 0.0
03/08:00am 10.4 10.0 9.8 96 0.3 NW 2 7 1 4 1016.2 1016.0 0.0
03/07:30am 8.5 8.1 8.4 99 0.0 CALM 0 0 0 0 1015.9 1015.7 0.0
03/07:00am 7.5 6.9 7.4 99 0.0 CALM 0 0 0 0 1015.9 1015.7 0.0
03/06:30am 5.6 4.5 5.3 98 0.1 CALM 0 0 0 0 1015.5 1015.3 0.0
03/06:00am 5.1 3.9 4.8 98 0.1 CALM 0 0 0 0 1015.1 1014.9 0.0
03/05:30am 5.6 4.2 5.3 98 0.1 SSE 2 7 1 4 1014.9 1014.7 0.0
03/05:00am 4.8 3.5 4.2 96 0.3 CALM 0 0 0 0 1015.0 1014.8 0.0
03/04:30am 5.4 4.2 4.8 96 0.3 CALM 0 0 0 0 1014.9 1014.7 0.0
03/04:00am 5.4 4.2 4.7 95 0.3 CALM 0 0 0 0 1014.9 1014.7 0.0
03/03:30am 6.6 5.7 5.9 95 0.3 CALM 0 0 0 0 1014.9 1014.7 0.0
03/03:00am 6.7 5.7 5.7 93 0.4 CALM 0 0 0 0 1015.1 1014.9 0.0
03/02:30am 7.0 6.0 5.6 91 0.6 CALM 0 0 0 0 1015.4 1015.2 0.0
03/02:00am 7.8 6.9 6.1 89 0.8 CALM 0 0 0 0 1015.7 1015.5 0.0
03/01:30am 9.4 7.3 5.9 79 1.6 S 6 9 3 5 1015.8 1015.6 0.0
03/01:00am 10.4 8.4 6.4 76 1.9 S 6 9 3 5 1016.1 1015.9 0.0
03/12:30am 10.7 8.8 6.6 76 1.9 S 6 9 3 5 1016.2 1016.0 0.0
03/12:00am 11.7 8.8 6.6 71 2.4 SSE 11 17 6 9 1016.3 1016.1 0.0
 
Date/Time
EDT
Temp
°C
App
Temp
°C
Dew
Point
°C
Rel
Hum
%
Delta-T
°C
Wind Press
QNH
hPa
Press
MSL
hPa
Rain since
9am
mm
Dir  Spd
km/h
Gust
km/h
Spd
kts
Gust
kts
02/11:30pm 11.7 8.5 6.8 72 2.3 SSE 13 19 7 10 1016.3 1016.1 0.0
02/11:00pm 12.2 9.4 7.1 71 2.5 SSE 11 20 6 11 1016.3 1016.1 0.0
02/10:30pm 12.6 9.9 7.5 71 2.5 SSE 11 17 6 9 1016.1 1015.9 0.0
02/10:00pm 13.2 10.3 8.1 71 2.5 SSE 13 22 7 12 1016.1 1015.9 0.0
02/09:30pm 13.4 11.1 8.9 74 2.3 SE 11 20 6 11 1015.8 1015.6 0.0
02/09:00pm 14.5 11.8 9.1 70 2.8 SSE 13 20 7 11 1015.4 1015.2 0.0
02/08:30pm 15.0 11.5 8.9 67 3.1 SSE 17 28 9 15 1014.8 1014.6 0.0
02/08:00pm 16.3 12.9 9.3 63 3.6 SSE 17 26 9 14 1014.3 1014.1 0.0
02/07:30pm 17.8 14.6 9.9 60 4.2 SSE 17 26 9 14 1013.7 1013.6 0.0
02/07:00pm 18.7 15.7 10.5 59 4.4 SSE 17 24 9 13 1013.3 1013.2 0.0
02/06:30pm 19.8 17.5 11.6 59 4.5 SSE 15 22 8 12 1012.9 1012.8 0.0
02/06:00pm 20.6 18.5 11.2 55 5.2 S 13 24 7 13 1012.4 1012.3 0.0
02/05:30pm 22.2 19.3 9.7 45 6.8 SW 15 24 8 13 1012.3 1012.2 0.0
02/05:00pm 21.9 19.7 9.4 45 6.7 SSW 11 20 6 11 1012.3 1012.2 0.0
02/04:30pm 22.4 20.9 10.5 47 6.6 SSW 9 17 5 9 1012.2 1012.1 0.0
02/04:00pm 22.7 20.4 10.5 46 6.7 SW 13 20 7 11 1012.2 1012.1 0.0
02/03:30pm 22.4 20.3 9.9 45 6.8 SW 11 19 6 10 1012.1 1012.0 0.0
02/03:00pm 22.1 19.3 8.6 42 7.2 SW 13 24 7 13 1012.1 1012.0 0.0
02/02:30pm 21.1 18.3 8.7 45 6.6 WSW 13 19 7 10 1012.3 1012.2 0.0
02/02:00pm 21.9 20.4 10.4 48 6.3 SSW 9 15 5 8 1012.3 1012.2 0.0
02/01:30pm 20.0 16.6 7.7 45 6.3 SW 15 24 8 13 1012.4 1012.3 0.0
02/01:00pm 21.2 19.1 11.2 53 5.5 SW 13 26 7 14 1012.4 1012.3 0.0
02/12:30pm 20.0 18.2 9.3 50 5.7 S 9 17 5 9 1012.3 1012.2 0.0
02/12:00pm 19.5 18.2 9.1 51 5.5 N 6 15 3 8 1012.3 1012.2 0.0
02/11:30am 19.1 17.8 10.1 56 4.8 WSW 7 24 4 13 1012.3 1012.2 0.0
02/11:00am 17.9 16.2 9.8 59 4.3 WSW 9 24 5 13 1012.2 1012.1 0.0
02/10:30am 17.2 14.9 10.6 65 3.5 W 13 22 7 12 1012.1 1012.0 0.0
02/10:00am 17.4 15.8 11.7 69 3.1 W 11 19 6 10 1011.7 1011.6 0.0
02/09:30am 16.4 15.8 12.2 76 2.3 WSW 7 13 4 7 1011.4 1011.3 0.0
02/09:00am 15.5 15.0 12.1 80 1.9 WSW 6 13 3 7 1011.2 1011.1 0.0
02/08:30am 14.7 14.1 12.2 85 1.4 W 7 11 4 6 1011.0 1010.9 0.0
02/08:00am 14.4 13.4 12.3 87 1.1 W 9 13 5 7 1010.9 1010.8 0.0
02/07:30am 14.1 14.8 12.3 89 1.0 CALM 0 0 0 0 1010.4 1010.3 0.0
02/07:00am 13.6 12.5 11.8 89 1.0 W 9 11 5 6 1009.9 1009.7 0.0
02/06:30am 13.5 12.4 11.9 90 0.9 W 9 11 5 6 1009.4 1009.2 0.0
02/06:00am 13.3 12.8 12.0 92 0.7 W 6 9 3 5 1008.9 1008.7 0.0
02/05:30am 12.9 13.6 12.1 95 0.4 CALM 0 0 0 0 1008.5 1008.3 0.0
02/05:00am 12.1 12.4 11.0 93 0.6 CALM 0 0 0 0 1008.1 1007.9 0.0
02/04:30am 12.2 11.3 10.6 90 0.8 WSW 6 7 3 4 1007.7 1007.5 0.0
02/04:00am 13.5 13.2 11.4 87 1.1 NW 4 7 2 4 1007.6 1007.4 0.0
02/03:30am 13.7 14.4 12.1 90 0.9 CALM 0 0 0 0 1007.7 1007.5 0.0
02/03:00am 13.6 13.5 12.2 91 0.8 NNW 4 7 2 4 1007.8 1007.6 0.0
02/02:30am 13.1 13.9 12.5 96 0.3 CALM 0 6 0 3 1008.0 1007.8 0.0
02/02:00am 12.5 12.7 12.0 97 0.3 WNW 2 7 1 4 1007.9 1007.7 0.0
02/01:30am 12.9 13.7 12.6 98 0.2 CALM 0 0 0 0 1007.9 1007.7 0.0
02/01:00am 12.6 13.3 12.3 98 0.2 CALM 0 0 0 0 1007.8 1007.6 0.0
02/12:30am 11.5 11.7 10.7 95 0.4 CALM 0 0 0 0 1007.8 1007.6 0.0
02/12:00am 11.8 12.0 10.5 92 0.7 CALM 0 0 0 0 1007.8 1007.6 0.0
 
Date/Time
EDT
Temp
°C
App
Temp
°C
Dew
Point
°C
Rel
Hum
%
Delta-T
°C
Wind Press
QNH
hPa
Press
MSL
hPa
Rain since
9am
mm
Dir  Spd
km/h
Gust
km/h
Spd
kts
Gust
kts
01/11:30pm 12.9 13.4 11.6 92 0.7 CALM 0 0 0 0 1007.7 1007.5 0.0
01/11:00pm 13.3 13.5 11.7 90 0.9 ENE 2 9 1 5 1007.5 1007.3 0.0
01/10:30pm 13.3 13.6 11.0 86 1.2 CALM 0 0 0 0 1007.4 1007.2 0.0
01/10:00pm 15.2 15.8 12.0 81 1.7 CALM 0 0 0 0 1007.2 1007.0 0.0
01/09:30pm 16.7 17.0 12.3 75 2.4 SSE 2 11 1 6 1006.8 1006.6 0.0

Other Formats:

Comma delimited format used in spreadsheet applications
http://www.bom.gov.au/fwo/IDV60801/IDV60801.94864.axf

JavaScript Object Notation format (JSON) in row-major order
http://www.bom.gov.au/fwo/IDV60801/IDV60801.94864.json